createdAt,value
2023-04-12T00:00:24.947Z,13.46
2023-04-12T00:02:54.531Z,13.43
2023-04-12T00:05:23.307Z,13.37
2023-04-12T00:07:55.115Z,13.40
2023-04-12T00:10:26.661Z,13.43
2023-04-12T00:12:56.498Z,13.42
2023-04-12T00:15:23.646Z,13.36
2023-04-12T00:17:51.793Z,13.24
2023-04-12T00:20:21.683Z,13.23
2023-04-12T00:22:49.193Z,13.26
2023-04-12T00:25:20.069Z,13.29
2023-04-12T00:27:51.255Z,13.36
2023-04-12T00:30:24.042Z,13.43
2023-04-12T00:32:52.283Z,13.45
2023-04-12T00:35:20.225Z,13.42
2023-04-12T00:37:48.381Z,13.42
2023-04-12T00:40:16.445Z,13.40
2023-04-12T00:42:44.408Z,13.40
2023-04-12T00:45:14.086Z,13.39
2023-04-12T00:47:43.680Z,13.33
2023-04-12T00:50:12.531Z,13.31
2023-04-12T00:52:40.136Z,13.26
2023-04-12T00:55:14.490Z,13.19
2023-04-12T00:57:42.930Z,13.14
2023-04-12T01:00:13.450Z,13.10
2023-04-12T01:02:47.849Z,13.08
2023-04-12T01:05:24.659Z,13.05
2023-04-12T01:08:33.939Z,13.00
2023-04-12T01:11:27.173Z,12.94
2023-04-12T01:14:04.946Z,12.80
2023-04-12T01:16:42.137Z,12.72
2023-04-12T01:19:37.033Z,12.58
2023-04-12T01:22:26.136Z,12.45
2023-04-12T01:25:29.427Z,12.45
2023-04-12T01:28:04.972Z,12.43
2023-04-12T01:30:36.072Z,12.43
2023-04-12T01:33:07.134Z,12.41
2023-04-12T01:35:35.476Z,12.37
2023-04-12T01:38:04.705Z,12.36
2023-04-12T01:40:32.869Z,12.34
2023-04-12T01:43:16.804Z,12.35
2023-04-12T01:45:45.152Z,12.41
2023-04-12T01:48:13.685Z,12.41
2023-04-12T01:51:05.338Z,12.33
2023-04-12T01:53:58.216Z,12.24
2023-04-12T01:56:31.815Z,12.17
2023-04-12T01:59:02.698Z,12.12
2023-04-12T02:01:31.205Z,12.04
2023-04-12T02:04:01.454Z,12.08
2023-04-12T02:06:32.826Z,12.06
2023-04-12T02:09:06.475Z,11.97
2023-04-12T02:11:34.777Z,11.87
2023-04-12T02:14:06.595Z,11.72
2023-04-12T02:16:39.126Z,11.71
2023-04-12T02:19:10.996Z,11.71
2023-04-12T02:21:46.230Z,11.73
2023-04-12T02:24:14.469Z,11.66
2023-04-12T02:26:45.455Z,11.55
2023-04-12T02:29:13.650Z,11.55
2023-04-12T02:31:42.263Z,11.55
2023-04-12T02:34:13.759Z,11.54
2023-04-12T02:36:50.747Z,11.61
2023-04-12T02:39:22.471Z,11.66
2023-04-12T02:41:51.975Z,11.47
2023-04-12T02:44:21.678Z,11.39
2023-04-12T02:47:06.837Z,11.32
2023-04-12T02:49:38.946Z,11.17
2023-04-12T02:52:11.533Z,11.07
2023-04-12T02:54:57.257Z,11.05
2023-04-12T02:57:25.399Z,10.94
2023-04-12T02:59:55.678Z,10.90
2023-04-12T03:02:29.726Z,10.68
2023-04-12T03:05:05.677Z,10.51
2023-04-12T03:07:42.597Z,10.41
2023-04-12T03:10:12.097Z,10.36
2023-04-12T03:12:55.576Z,10.31
2023-04-12T03:15:33.072Z,10.23
2023-04-12T03:18:01.139Z,10.23
2023-04-12T03:20:31.754Z,10.24
2023-04-12T03:23:03.626Z,10.27
2023-04-12T03:25:33.218Z,10.28
2023-04-12T03:28:16.358Z,10.24
2023-04-12T03:30:50.101Z,10.24
2023-04-12T03:33:20.198Z,10.18
2023-04-12T03:35:48.101Z,10.09
2023-04-12T03:38:25.067Z,10.10
2023-04-12T03:40:55.697Z,10.02
2023-04-12T03:43:36.448Z,9.93
2023-04-12T03:46:08.905Z,9.96
2023-04-12T03:48:36.883Z,9.90
2023-04-12T03:51:12.387Z,9.85
2023-04-12T03:53:47.992Z,9.72
2023-04-12T03:56:17.765Z,9.73
2023-04-12T03:58:49.270Z,9.77
2023-04-12T04:01:18.261Z,9.82
2023-04-12T04:03:47.137Z,9.85
2023-04-12T04:06:25.201Z,9.75
2023-04-12T04:08:56.005Z,9.63
2023-04-12T04:11:27.737Z,9.60
2023-04-12T04:14:04.614Z,9.57
2023-04-12T04:16:32.989Z,9.58
2023-04-12T04:19:06.124Z,9.54
2023-04-12T04:21:34.319Z,9.55
2023-04-12T04:24:12.174Z,9.70
2023-04-12T04:26:45.716Z,9.75
2023-04-12T04:29:26.025Z,9.77
2023-04-12T04:32:04.367Z,9.77
2023-04-12T04:34:33.318Z,9.80
2023-04-12T04:37:10.575Z,9.83
2023-04-12T04:39:40.997Z,9.85
2023-04-12T04:42:09.993Z,9.84
2023-04-12T04:44:42.923Z,9.82
2023-04-12T04:47:12.451Z,9.75
2023-04-12T04:49:43.769Z,9.69
2023-04-12T04:52:24.411Z,9.69
2023-04-12T04:54:57.949Z,9.67
2023-04-12T04:57:31.817Z,9.62
2023-04-12T05:00:01.749Z,9.61
2023-04-12T05:02:29.092Z,9.61
2023-04-12T05:05:00.195Z,9.59
2023-04-12T05:07:29.454Z,9.58
2023-04-12T05:09:57.050Z,9.57
2023-04-12T05:12:31.787Z,9.55
2023-04-12T05:15:11.092Z,9.59
2023-04-12T05:17:41.375Z,9.67
2023-04-12T05:20:10.949Z,9.54
2023-04-12T05:22:42.314Z,9.47
2023-04-12T05:25:10.235Z,9.44
2023-04-12T05:27:47.321Z,9.43
2023-04-12T05:30:17.383Z,9.35
2023-04-12T05:32:51.058Z,9.36
2023-04-12T05:35:21.951Z,9.41
2023-04-12T05:37:54.148Z,9.43
2023-04-12T05:40:25.157Z,9.46
2023-04-12T05:42:54.337Z,9.42
2023-04-12T05:45:24.432Z,9.45
2023-04-12T05:47:57.813Z,9.53
2023-04-12T05:50:26.721Z,9.63
2023-04-12T05:52:55.923Z,9.68
2023-04-12T05:55:37.968Z,9.62
2023-04-12T05:58:14.897Z,9.67
2023-04-12T06:00:42.778Z,9.75
2023-04-12T06:03:11.824Z,9.77
2023-04-12T06:05:40.148Z,9.73
2023-04-12T06:08:13.076Z,9.72
2023-04-12T06:10:42.627Z,9.80
2023-04-12T06:13:10.039Z,9.86
2023-04-12T06:15:42.696Z,9.92
2023-04-12T06:18:10.160Z,9.95
2023-04-12T06:20:39.533Z,9.95
2023-04-12T06:23:06.776Z,9.91
2023-04-12T06:25:34.823Z,9.96
2023-04-12T06:28:02.213Z,10.08
2023-04-12T06:30:29.677Z,10.14
2023-04-12T06:32:57.075Z,10.27
2023-04-12T06:35:24.172Z,10.38
2023-04-12T06:37:51.492Z,10.45
2023-04-12T06:40:18.585Z,10.46
2023-04-12T06:42:45.748Z,10.34
2023-04-12T06:45:12.722Z,10.32
2023-04-12T06:47:39.526Z,10.25
2023-04-12T06:50:07.170Z,10.19
2023-04-12T06:52:34.323Z,10.25
2023-04-12T06:55:01.239Z,10.21
2023-04-12T06:57:28.081Z,10.17
2023-04-12T06:59:55.021Z,10.12
2023-04-12T07:02:24.890Z,10.18
2023-04-12T07:04:54.966Z,10.19
2023-04-12T07:07:22.142Z,10.24
2023-04-12T07:09:48.935Z,10.23
2023-04-12T07:12:15.845Z,10.12
2023-04-12T07:14:44.602Z,10.05
2023-04-12T07:17:11.767Z,10.06
2023-04-12T07:19:39.420Z,9.93
2023-04-12T07:22:06.136Z,9.83
2023-04-12T07:24:32.888Z,9.92
2023-04-12T07:26:59.802Z,9.88
2023-04-12T07:29:26.715Z,9.94
2023-04-12T07:31:53.588Z,9.98
2023-04-12T07:34:20.820Z,10.03
2023-04-12T07:36:47.815Z,10.16
2023-04-12T07:39:15.003Z,10.30
2023-04-12T07:41:49.463Z,10.47
2023-04-12T07:44:16.285Z,10.42
2023-04-12T07:46:45.091Z,10.40
2023-04-12T07:49:11.871Z,10.50
2023-04-12T07:51:38.653Z,10.49
2023-04-12T07:54:05.533Z,10.43
2023-04-12T07:56:36.212Z,10.41
2023-04-12T07:59:02.998Z,10.44
2023-04-12T08:01:30.425Z,10.40
2023-04-12T08:03:57.478Z,10.45
2023-04-12T08:06:25.104Z,10.53
2023-04-12T08:08:52.932Z,10.62
2023-04-12T08:11:19.601Z,10.64
2023-04-12T08:13:46.446Z,10.69
2023-04-12T08:16:13.177Z,10.77
2023-04-12T08:18:39.987Z,10.76
2023-04-12T08:21:07.348Z,10.71
2023-04-12T08:23:34.158Z,10.72
2023-04-12T08:26:03.727Z,10.79
2023-04-12T08:28:31.354Z,10.86
2023-04-12T08:30:59.253Z,10.96
2023-04-12T08:33:26.765Z,11.00
2023-04-12T08:35:53.951Z,11.14
2023-04-12T08:38:25.379Z,11.29
2023-04-12T08:40:58.018Z,11.62
2023-04-12T08:43:29.034Z,11.98
2023-04-12T08:45:58.591Z,12.35
2023-04-12T08:48:26.634Z,12.47
2023-04-12T08:50:54.932Z,12.45
2023-04-12T08:53:21.669Z,12.51
2023-04-12T08:55:49.527Z,12.71
2023-04-12T08:58:16.687Z,12.82
2023-04-12T09:00:45.396Z,12.97
2023-04-12T09:03:12.352Z,13.02
2023-04-12T09:05:39.206Z,13.07
2023-04-12T09:08:06.048Z,13.05
2023-04-12T09:10:38.104Z,12.99
2023-04-12T09:13:06.188Z,13.00
2023-04-12T09:15:36.237Z,13.11
2023-04-12T09:18:04.397Z,13.25
2023-04-12T09:20:31.317Z,13.44
2023-04-12T09:22:58.920Z,13.59
2023-04-12T09:25:45.733Z,13.70
2023-04-12T09:28:28.176Z,13.66
2023-04-12T09:30:57.507Z,13.76
2023-04-12T09:33:41.949Z,13.87
2023-04-12T09:36:13.784Z,13.91
2023-04-12T09:38:43.112Z,14.00
2023-04-12T09:41:27.558Z,14.04
2023-04-12T09:43:56.509Z,14.09
2023-04-12T09:46:24.375Z,13.84
2023-04-12T09:48:57.465Z,13.65
2023-04-12T09:51:32.964Z,13.65
2023-04-12T09:54:06.931Z,13.70
2023-04-12T09:56:35.951Z,13.63
2023-04-12T09:59:05.380Z,13.73
2023-04-12T10:01:39.606Z,13.87
2023-04-12T10:04:09.000Z,13.80
2023-04-12T10:06:37.458Z,13.76
2023-04-12T10:09:05.635Z,13.77
2023-04-12T10:11:34.353Z,13.97
2023-04-12T10:14:06.980Z,13.98
2023-04-12T10:16:34.787Z,14.05
2023-04-12T10:19:03.891Z,14.00
2023-04-12T10:21:32.312Z,14.11
2023-04-12T10:23:59.822Z,14.17
2023-04-12T10:26:27.148Z,14.22
2023-04-12T10:29:23.746Z,14.25
2023-04-12T10:31:51.311Z,14.17
2023-04-12T10:34:25.336Z,14.14
2023-04-12T10:36:58.928Z,14.18
2023-04-12T10:39:43.342Z,14.29
2023-04-12T10:42:28.264Z,14.50
2023-04-12T10:45:34.239Z,14.72
2023-04-12T10:48:02.060Z,14.80
2023-04-12T10:50:31.236Z,14.72
2023-04-12T10:53:15.496Z,14.72
2023-04-12T10:55:45.763Z,14.70
2023-04-12T10:58:50.221Z,14.72
2023-04-12T11:01:20.852Z,14.86
2023-04-12T11:04:10.133Z,14.95
2023-04-12T11:07:05.175Z,15.00
2023-04-12T11:09:51.039Z,15.38
2023-04-12T11:12:27.867Z,15.46
2023-04-12T11:15:01.419Z,15.23
2023-04-12T11:17:57.683Z,15.27
2023-04-12T11:20:26.280Z,15.16
2023-04-12T11:22:54.020Z,14.95
2023-04-12T11:25:23.106Z,14.94
2023-04-12T11:27:51.536Z,14.90
2023-04-12T11:30:19.824Z,14.61
2023-04-12T11:32:47.279Z,14.60
2023-04-12T11:35:20.470Z,14.85
2023-04-12T11:37:50.886Z,15.29
2023-04-12T11:40:22.562Z,15.67
2023-04-12T11:42:49.514Z,15.72
2023-04-12T11:45:20.423Z,15.72
2023-04-12T11:47:51.383Z,15.48
2023-04-12T11:50:30.872Z,15.37
2023-04-12T11:53:11.287Z,15.32
2023-04-12T11:55:38.279Z,15.38
2023-04-12T11:58:04.970Z,15.48
2023-04-12T12:00:32.246Z,15.62
2023-04-12T12:03:07.713Z,15.75
2023-04-12T12:05:38.441Z,15.84
2023-04-12T12:08:07.891Z,15.76
2023-04-12T12:10:46.450Z,15.59
2023-04-12T12:13:23.699Z,15.65
2023-04-12T12:15:52.895Z,15.87
2023-04-12T12:18:27.401Z,15.79
2023-04-12T12:20:55.767Z,15.65
2023-04-12T12:23:30.843Z,15.54
2023-04-12T12:26:14.424Z,15.52
2023-04-12T12:28:52.144Z,16.02
2023-04-12T12:31:23.325Z,16.23
2023-04-12T12:33:57.473Z,15.99
2023-04-12T12:36:39.710Z,15.74
2023-04-12T12:39:20.247Z,15.58
2023-04-12T12:41:59.049Z,15.38
2023-04-12T12:44:25.805Z,15.17
2023-04-12T12:47:00.586Z,14.99
2023-04-12T12:49:33.200Z,15.05
2023-04-12T12:51:59.958Z,15.04
2023-04-12T12:56:56.751Z,15.10
2023-04-12T12:59:25.467Z,14.97
2023-04-12T13:01:52.797Z,14.90
2023-04-12T13:04:19.751Z,14.87
2023-04-12T13:06:46.631Z,14.89
2023-04-12T13:09:13.844Z,15.35
2023-04-12T13:11:41.332Z,15.94
2023-04-12T13:14:08.087Z,15.82
2023-04-12T13:16:35.003Z,15.62
2023-04-12T13:19:02.309Z,15.53
2023-04-12T13:21:29.158Z,15.75
2023-04-12T13:23:55.936Z,15.66
2023-04-12T13:26:25.677Z,15.61
2023-04-12T13:28:54.551Z,15.73
2023-04-12T13:31:21.316Z,16.19
2023-04-12T13:33:49.270Z,16.52
2023-04-12T13:36:16.126Z,16.35
2023-04-12T13:38:43.323Z,15.72
2023-04-12T13:41:10.047Z,15.30
2023-04-12T13:43:36.704Z,15.24
2023-04-12T13:46:04.729Z,15.50
2023-04-12T13:48:31.688Z,15.91
2023-04-12T13:50:58.910Z,16.20
2023-04-12T13:53:25.961Z,16.38
2023-04-12T13:55:52.728Z,16.58
2023-04-12T13:58:19.531Z,16.70
2023-04-12T14:00:47.450Z,16.83
2023-04-12T14:03:17.397Z,17.01
2023-04-12T14:05:48.738Z,16.95
2023-04-12T14:08:15.563Z,16.77
2023-04-12T14:10:42.516Z,16.54
2023-04-12T14:13:09.528Z,16.48
2023-04-12T14:15:36.164Z,16.53
2023-04-12T14:18:03.080Z,16.49
2023-04-12T14:20:30.159Z,16.39
2023-04-12T14:22:57.073Z,16.26
2023-04-12T14:25:23.943Z,16.06
2023-04-12T14:27:52.012Z,15.83
2023-04-12T14:30:19.178Z,15.58
2023-04-12T14:32:47.621Z,15.45
2023-04-12T14:35:14.636Z,15.44
2023-04-12T14:37:41.725Z,15.45
2023-04-12T14:40:08.840Z,15.46
2023-04-12T14:42:35.718Z,15.49
2023-04-12T14:45:02.519Z,15.54
2023-04-12T14:47:29.346Z,15.56
2023-04-12T14:49:56.287Z,15.61
2023-04-12T14:52:24.365Z,15.62
2023-04-12T14:54:51.544Z,15.70
2023-04-12T14:57:18.265Z,15.77
2023-04-12T14:59:45.017Z,15.81
2023-04-12T15:02:12.107Z,15.78
2023-04-12T15:04:38.835Z,15.68
2023-04-12T15:07:05.765Z,15.59
2023-04-12T15:09:34.579Z,15.60
2023-04-12T15:12:01.495Z,15.76
2023-04-12T15:14:29.018Z,16.01
2023-04-12T15:16:55.821Z,15.94
2023-04-12T15:19:23.918Z,15.83
2023-04-12T15:21:53.031Z,15.70
2023-04-12T15:24:20.017Z,15.61
2023-04-12T15:26:48.639Z,15.58
2023-04-12T15:29:16.728Z,15.56
2023-04-12T15:31:43.913Z,15.55
2023-04-12T15:34:14.084Z,15.51
2023-04-12T15:36:42.902Z,15.45
2023-04-12T15:39:11.412Z,15.57
2023-04-12T15:41:39.979Z,15.79
2023-04-12T15:44:08.911Z,16.15
2023-04-12T15:46:36.902Z,16.37
2023-04-12T15:49:06.903Z,16.51
2023-04-12T15:51:35.792Z,16.50
2023-04-12T15:54:02.819Z,16.65
2023-04-12T15:56:31.495Z,17.43
2023-04-12T15:58:59.039Z,17.98
2023-04-12T16:01:26.269Z,17.81
2023-04-12T16:03:53.964Z,17.29
2023-04-12T16:06:21.214Z,16.72
2023-04-12T16:08:53.552Z,16.16
2023-04-12T16:11:24.194Z,15.90
2023-04-12T16:13:51.518Z,15.83
2023-04-12T16:16:21.154Z,15.80
2023-04-12T16:18:48.563Z,15.77
2023-04-12T16:21:19.978Z,15.71
2023-04-12T16:23:48.305Z,15.59
2023-04-12T16:26:21.722Z,15.50
2023-04-12T16:28:55.380Z,15.43
2023-04-12T16:31:25.450Z,15.37
2023-04-12T16:33:52.753Z,15.34
2023-04-12T16:36:22.267Z,15.33
2023-04-12T16:38:49.766Z,15.28
2023-04-12T16:41:18.688Z,15.23
2023-04-12T16:43:45.856Z,15.14
2023-04-12T16:46:13.326Z,15.07
2023-04-12T16:48:41.259Z,14.97
2023-04-12T16:51:09.617Z,14.92
2023-04-12T16:53:37.485Z,14.92
2023-04-12T16:56:04.663Z,14.87
2023-04-12T16:58:31.667Z,14.77
2023-04-12T17:01:00.917Z,14.66
2023-04-12T17:03:28.757Z,14.56
2023-04-12T17:05:55.625Z,14.51
2023-04-12T17:08:22.806Z,14.50
2023-04-12T17:10:49.696Z,14.48
2023-04-12T17:13:20.310Z,14.41
2023-04-12T17:15:50.241Z,14.35
2023-04-12T17:18:17.127Z,14.26
2023-04-12T17:20:44.502Z,14.21
2023-04-12T17:23:11.556Z,14.30
2023-04-12T17:25:39.645Z,14.38
2023-04-12T17:28:08.545Z,14.42
2023-04-12T17:30:35.351Z,14.41
2023-04-12T17:33:03.088Z,14.32
2023-04-12T17:35:29.876Z,14.22
2023-04-12T17:37:56.824Z,14.20
2023-04-12T17:40:23.758Z,14.23
2023-04-12T17:42:50.557Z,14.30
2023-04-12T17:45:18.494Z,14.43
2023-04-12T17:47:45.312Z,14.53
2023-04-12T17:50:12.662Z,14.60
2023-04-12T17:52:39.732Z,14.63
2023-04-12T17:55:12.818Z,14.60
2023-04-12T17:57:39.593Z,14.60
2023-04-12T18:00:11.548Z,14.51
2023-04-12T18:02:44.205Z,14.45
2023-04-12T18:05:11.488Z,14.40
2023-04-12T18:07:39.934Z,14.40
2023-04-12T18:10:09.024Z,14.38
2023-04-12T18:12:36.260Z,14.34
2023-04-12T18:15:05.698Z,14.25
2023-04-12T18:17:32.444Z,14.11
2023-04-12T18:20:00.624Z,14.04
2023-04-12T18:22:29.536Z,13.94
2023-04-12T18:24:56.507Z,13.90
2023-04-12T18:27:23.393Z,13.90
2023-04-12T18:29:50.056Z,13.83
2023-04-12T18:32:17.180Z,13.73
2023-04-12T18:34:43.850Z,13.59
2023-04-12T18:37:10.834Z,13.49
2023-04-12T18:39:37.510Z,13.40
2023-04-12T18:42:04.411Z,13.34
2023-04-12T18:44:31.379Z,13.27
2023-04-12T18:46:58.235Z,13.24
2023-04-12T18:49:26.006Z,13.22
2023-04-12T18:51:53.836Z,13.30
2023-04-12T18:54:21.167Z,13.42
2023-04-12T18:56:47.931Z,13.55
2023-04-12T18:59:17.649Z,13.65
2023-04-12T19:01:45.828Z,13.72
2023-04-12T19:04:16.432Z,13.77
2023-04-12T19:06:44.587Z,13.80
2023-04-12T19:09:11.641Z,13.83
2023-04-12T19:11:38.282Z,13.84
2023-04-12T19:14:05.498Z,13.88
2023-04-12T19:16:32.819Z,13.57
2023-04-12T19:19:00.385Z,13.16
2023-04-12T19:21:31.656Z,12.91
2023-04-12T19:23:58.671Z,12.71
2023-04-12T19:26:26.143Z,12.54
2023-04-12T19:28:55.665Z,12.32
2023-04-12T19:31:23.708Z,12.14
2023-04-12T19:33:51.231Z,12.06
2023-04-12T19:36:18.389Z,12.09
2023-04-12T19:38:47.859Z,12.09
2023-04-12T19:41:16.282Z,12.14
2023-04-12T19:43:43.200Z,12.19
2023-04-12T19:46:10.270Z,12.22
2023-04-12T19:48:37.884Z,12.26
2023-04-12T19:51:05.491Z,12.29
2023-04-12T19:53:33.401Z,12.29
2023-04-12T19:56:00.864Z,12.29
2023-04-12T19:58:27.653Z,12.31
2023-04-12T20:00:55.024Z,12.30
2023-04-12T20:03:22.748Z,12.28
2023-04-12T20:05:51.721Z,12.24
2023-04-12T20:08:18.608Z,12.15
2023-04-12T20:10:45.502Z,12.13
2023-04-12T20:13:15.348Z,12.11
2023-04-12T20:15:45.291Z,12.11
2023-04-12T20:18:13.596Z,12.09
2023-04-12T20:20:44.196Z,12.08
2023-04-12T20:23:14.417Z,12.06
2023-04-12T20:25:42.645Z,12.02
2023-04-12T20:28:10.073Z,12.00
2023-04-12T20:30:37.255Z,12.01
2023-04-12T20:33:04.219Z,11.98
2023-04-12T20:35:33.146Z,11.98
2023-04-12T20:38:00.298Z,11.97
2023-04-12T20:40:29.876Z,11.94
2023-04-12T20:42:56.879Z,11.89
2023-04-12T20:45:23.976Z,11.86
2023-04-12T20:47:51.216Z,11.91
2023-04-12T20:50:18.882Z,11.97
2023-04-12T20:52:46.410Z,12.04
2023-04-12T20:55:14.245Z,12.08
2023-04-12T20:57:41.255Z,12.11
2023-04-12T21:00:18.948Z,12.07
2023-04-12T21:02:46.800Z,12.04
2023-04-12T21:05:17.404Z,12.08
2023-04-12T21:07:46.609Z,12.09
2023-04-12T21:10:15.293Z,12.05
2023-04-12T21:12:44.959Z,12.04
2023-04-12T21:15:13.126Z,12.01
2023-04-12T21:17:40.904Z,11.99
2023-04-12T21:20:13.277Z,11.98
2023-04-12T21:22:42.133Z,11.96
2023-04-12T21:25:15.094Z,11.95
2023-04-12T21:27:43.662Z,11.93
2023-04-12T21:30:14.078Z,11.93
2023-04-12T21:32:42.862Z,11.90
2023-04-12T21:35:12.112Z,11.87
2023-04-12T21:38:00.328Z,11.87
2023-04-12T21:40:27.411Z,11.83
2023-04-12T21:42:54.167Z,11.81
2023-04-12T21:45:21.335Z,11.79
2023-04-12T21:47:48.812Z,11.75
2023-04-12T21:50:18.382Z,11.69
2023-04-12T21:52:47.268Z,11.64
2023-04-12T21:55:14.114Z,11.58
2023-04-12T21:57:41.942Z,11.50
2023-04-12T22:00:10.150Z,11.38
2023-04-12T22:02:40.753Z,11.28
2023-04-12T22:05:13.552Z,11.20
2023-04-12T22:07:41.048Z,11.11
2023-04-12T22:10:20.396Z,11.06
2023-04-12T22:12:56.462Z,11.00
2023-04-12T22:15:23.377Z,10.97
2023-04-12T22:17:50.455Z,10.95
2023-04-12T22:20:17.815Z,10.99
2023-04-12T22:22:44.646Z,11.05
2023-04-12T22:25:14.841Z,11.15
2023-04-12T22:27:48.577Z,11.29
2023-04-12T22:30:23.740Z,11.39
2023-04-12T22:33:02.586Z,11.45
2023-04-12T22:35:35.415Z,11.40
2023-04-12T22:38:02.966Z,11.34
2023-04-12T22:40:32.552Z,11.30
2023-04-12T22:42:59.682Z,11.22
2023-04-12T22:45:28.763Z,11.11
2023-04-12T22:47:55.812Z,11.00
2023-04-12T22:50:24.995Z,10.91
2023-04-12T22:52:57.766Z,10.85
2023-04-12T22:55:30.131Z,10.81
2023-04-12T22:58:05.726Z,10.75
2023-04-12T23:00:41.481Z,10.83
2023-04-12T23:03:10.921Z,10.80
2023-04-12T23:05:48.330Z,10.76
2023-04-12T23:08:20.625Z,10.66
2023-04-12T23:10:53.630Z,10.55
2023-04-12T23:13:29.461Z,10.48
2023-04-12T23:15:57.924Z,10.50
2023-04-12T23:18:28.650Z,10.56
2023-04-12T23:20:55.886Z,10.63
2023-04-12T23:23:26.654Z,10.61
2023-04-12T23:25:57.923Z,10.54
2023-04-12T23:28:26.737Z,10.44
2023-04-12T23:30:59.769Z,10.35
2023-04-12T23:33:27.013Z,10.27
2023-04-12T23:35:56.217Z,10.18
2023-04-12T23:38:26.291Z,10.11
2023-04-12T23:40:56.659Z,10.05
2023-04-12T23:43:25.485Z,10.01
2023-04-12T23:45:53.496Z,10.00
2023-04-12T23:48:21.222Z,10.00
2023-04-12T23:50:48.549Z,9.98
2023-04-12T23:53:16.917Z,9.98
2023-04-12T23:55:47.762Z,9.94
2023-04-12T23:58:18.137Z,9.90
